sensor_id;sensor_type;location;lat;lon;timestamp;P1;durP1;ratioP1;P2;durP2;ratioP2
8102;SDS011;4094;49.948;11.574;2023-02-04T00:01:07;13.77;;;8.80;;
8102;SDS011;4094;49.948;11.574;2023-02-04T00:03:36;8.83;;;7.70;;
8102;SDS011;4094;49.948;11.574;2023-02-04T00:06:06;11.43;;;9.33;;
8102;SDS011;4094;49.948;11.574;2023-02-04T00:08:35;9.90;;;8.90;;
8102;SDS011;4094;49.948;11.574;2023-02-04T00:11:04;10.47;;;8.67;;
8102;SDS011;4094;49.948;11.574;2023-02-04T00:13:35;10.60;;;8.57;;
8102;SDS011;4094;49.948;11.574;2023-02-04T00:16:04;14.70;;;9.10;;
8102;SDS011;4094;49.948;11.574;2023-02-04T00:18:34;9.63;;;8.63;;
8102;SDS011;4094;49.948;11.574;2023-02-04T00:21:03;9.20;;;8.33;;
8102;SDS011;4094;49.948;11.574;2023-02-04T00:23:32;9.90;;;8.70;;
8102;SDS011;4094;49.948;11.574;2023-02-04T00:26:01;10.87;;;8.30;;
8102;SDS011;4094;49.948;11.574;2023-02-04T00:28:32;10.67;;;8.50;;
8102;SDS011;4094;49.948;11.574;2023-02-04T00:31:01;12.80;;;9.00;;
8102;SDS011;4094;49.948;11.574;2023-02-04T00:33:30;11.80;;;9.30;;
8102;SDS011;4094;49.948;11.574;2023-02-04T00:35:59;12.40;;;8.67;;
8102;SDS011;4094;49.948;11.574;2023-02-04T00:38:28;12.50;;;9.10;;
8102;SDS011;4094;49.948;11.574;2023-02-04T00:40:57;9.37;;;8.37;;
8102;SDS011;4094;49.948;11.574;2023-02-04T00:43:26;10.50;;;8.90;;
8102;SDS011;4094;49.948;11.574;2023-02-04T00:45:57;13.03;;;8.80;;
8102;SDS011;4094;49.948;11.574;2023-02-04T00:48:26;15.83;;;9.03;;
8102;SDS011;4094;49.948;11.574;2023-02-04T00:50:56;10.43;;;8.47;;
8102;SDS011;4094;49.948;11.574;2023-02-04T00:53:25;9.40;;;8.37;;
8102;SDS011;4094;49.948;11.574;2023-02-04T00:55:54;13.97;;;9.07;;
8102;SDS011;4094;49.948;11.574;2023-02-04T00:58:26;12.13;;;8.47;;
8102;SDS011;4094;49.948;11.574;2023-02-04T01:00:59;9.67;;;8.23;;
8102;SDS011;4094;49.948;11.574;2023-02-04T01:03:29;9.73;;;8.63;;
8102;SDS011;4094;49.948;11.574;2023-02-04T01:05:58;13.80;;;8.93;;
8102;SDS011;4094;49.948;11.574;2023-02-04T01:08:27;9.80;;;8.80;;
8102;SDS011;4094;49.948;11.574;2023-02-04T01:10:57;10.60;;;8.10;;
8102;SDS011;4094;49.948;11.574;2023-02-04T01:13:27;10.97;;;8.83;;
8102;SDS011;4094;49.948;11.574;2023-02-04T01:15:56;11.63;;;8.57;;
8102;SDS011;4094;49.948;11.574;2023-02-04T01:18:27;9.83;;;8.33;;
8102;SDS011;4094;49.948;11.574;2023-02-04T01:20:57;9.90;;;8.90;;
8102;SDS011;4094;49.948;11.574;2023-02-04T01:23:26;13.10;;;8.73;;
8102;SDS011;4094;49.948;11.574;2023-02-04T01:25:55;9.30;;;8.27;;
8102;SDS011;4094;49.948;11.574;2023-02-04T01:28:27;11.57;;;8.60;;
8102;SDS011;4094;49.948;11.574;2023-02-04T01:30:58;12.63;;;9.00;;
8102;SDS011;4094;49.948;11.574;2023-02-04T01:33:28;9.57;;;8.57;;
8102;SDS011;4094;49.948;11.574;2023-02-04T01:35:58;10.93;;;8.67;;
8102;SDS011;4094;49.948;11.574;2023-02-04T01:38:28;11.57;;;8.80;;
8102;SDS011;4094;49.948;11.574;2023-02-04T01:40:58;9.37;;;8.40;;
8102;SDS011;4094;49.948;11.574;2023-02-04T01:43:28;10.63;;;8.23;;
8102;SDS011;4094;49.948;11.574;2023-02-04T01:45:57;12.50;;;8.63;;
8102;SDS011;4094;49.948;11.574;2023-02-04T01:48:30;13.90;;;9.00;;
8102;SDS011;4094;49.948;11.574;2023-02-04T01:51:01;9.47;;;8.57;;
8102;SDS011;4094;49.948;11.574;2023-02-04T01:53:32;14.33;;;8.80;;
8102;SDS011;4094;49.948;11.574;2023-02-04T01:56:10;13.00;;;9.10;;
8102;SDS011;4094;49.948;11.574;2023-02-04T01:58:44;11.27;;;8.80;;
8102;SDS011;4094;49.948;11.574;2023-02-04T02:01:14;11.70;;;8.67;;
8102;SDS011;4094;49.948;11.574;2023-02-04T02:04:02;14.63;;;9.13;;
8102;SDS011;4094;49.948;11.574;2023-02-04T02:06:32;11.73;;;8.80;;
8102;SDS011;4094;49.948;11.574;2023-02-04T02:09:03;12.00;;;8.53;;
8102;SDS011;4094;49.948;11.574;2023-02-04T02:11:35;10.13;;;8.97;;
8102;SDS011;4094;49.948;11.574;2023-02-04T02:14:04;11.93;;;8.83;;
8102;SDS011;4094;49.948;11.574;2023-02-04T02:16:36;10.47;;;8.70;;
8102;SDS011;4094;49.948;11.574;2023-02-04T02:19:07;13.80;;;8.93;;
8102;SDS011;4094;49.948;11.574;2023-02-04T02:21:48;10.77;;;8.70;;
8102;SDS011;4094;49.948;11.574;2023-02-04T02:24:28;11.80;;;8.73;;
8102;SDS011;4094;49.948;11.574;2023-02-04T02:27:19;9.77;;;8.53;;
8102;SDS011;4094;49.948;11.574;2023-02-04T02:30:19;12.57;;;9.10;;
8102;SDS011;4094;49.948;11.574;2023-02-04T02:33:16;9.87;;;8.73;;
8102;SDS011;4094;49.948;11.574;2023-02-04T02:36:12;10.93;;;9.10;;
8102;SDS011;4094;49.948;11.574;2023-02-04T02:38:49;11.00;;;9.03;;
8102;SDS011;4094;49.948;11.574;2023-02-04T02:41:19;9.80;;;8.43;;
8102;SDS011;4094;49.948;11.574;2023-02-04T02:43:49;9.20;;;8.30;;
8102;SDS011;4094;49.948;11.574;2023-02-04T02:46:18;9.00;;;8.10;;
8102;SDS011;4094;49.948;11.574;2023-02-04T02:48:47;10.27;;;9.17;;
8102;SDS011;4094;49.948;11.574;2023-02-04T02:51:16;9.60;;;8.80;;
8102;SDS011;4094;49.948;11.574;2023-02-04T02:53:49;10.50;;;8.63;;
8102;SDS011;4094;49.948;11.574;2023-02-04T02:56:20;9.97;;;8.97;;
8102;SDS011;4094;49.948;11.574;2023-02-04T02:58:49;9.10;;;8.30;;
8102;SDS011;4094;49.948;11.574;2023-02-04T03:01:18;11.03;;;8.90;;
8102;SDS011;4094;49.948;11.574;2023-02-04T03:03:49;12.43;;;9.03;;
8102;SDS011;4094;49.948;11.574;2023-02-04T03:06:19;11.67;;;8.90;;
8102;SDS011;4094;49.948;11.574;2023-02-04T03:08:52;11.37;;;8.67;;
8102;SDS011;4094;49.948;11.574;2023-02-04T03:11:25;10.47;;;9.00;;
8102;SDS011;4094;49.948;11.574;2023-02-04T03:13:56;11.70;;;8.93;;
8102;SDS011;4094;49.948;11.574;2023-02-04T03:16:28;11.97;;;8.77;;
8102;SDS011;4094;49.948;11.574;2023-02-04T03:19:02;11.07;;;8.57;;
8102;SDS011;4094;49.948;11.574;2023-02-04T03:21:34;11.93;;;9.17;;
8102;SDS011;4094;49.948;11.574;2023-02-04T03:24:04;10.97;;;8.73;;
8102;SDS011;4094;49.948;11.574;2023-02-04T03:26:37;9.27;;;8.37;;
8102;SDS011;4094;49.948;11.574;2023-02-04T03:29:07;10.53;;;9.43;;
8102;SDS011;4094;49.948;11.574;2023-02-04T03:31:37;13.00;;;9.20;;
8102;SDS011;4094;49.948;11.574;2023-02-04T03:34:06;11.57;;;8.70;;
8102;SDS011;4094;49.948;11.574;2023-02-04T03:36:35;10.17;;;8.50;;
8102;SDS011;4094;49.948;11.574;2023-02-04T03:39:04;11.67;;;8.80;;
8102;SDS011;4094;49.948;11.574;2023-02-04T03:41:34;9.43;;;8.63;;
8102;SDS011;4094;49.948;11.574;2023-02-04T03:44:05;10.60;;;8.70;;
8102;SDS011;4094;49.948;11.574;2023-02-04T03:46:34;10.13;;;8.73;;
8102;SDS011;4094;49.948;11.574;2023-02-04T03:49:03;11.37;;;9.23;;
8102;SDS011;4094;49.948;11.574;2023-02-04T03:51:32;9.73;;;8.77;;
8102;SDS011;4094;49.948;11.574;2023-02-04T03:54:01;8.60;;;7.80;;
8102;SDS011;4094;49.948;11.574;2023-02-04T03:56:31;7.80;;;7.30;;
8102;SDS011;4094;49.948;11.574;2023-02-04T03:59:00;7.93;;;7.53;;
8102;SDS011;4094;49.948;11.574;2023-02-04T04:01:31;7.60;;;7.20;;
8102;SDS011;4094;49.948;11.574;2023-02-04T04:04:02;8.10;;;7.70;;
8102;SDS011;4094;49.948;11.574;2023-02-04T04:06:31;7.90;;;7.50;;
8102;SDS011;4094;49.948;11.574;2023-02-04T04:09:00;7.87;;;7.57;;
8102;SDS011;4094;49.948;11.574;2023-02-04T04:11:29;7.43;;;7.13;;
8102;SDS011;4094;49.948;11.574;2023-02-04T04:14:00;7.63;;;7.33;;
8102;SDS011;4094;49.948;11.574;2023-02-04T04:16:30;7.97;;;7.57;;
8102;SDS011;4094;49.948;11.574;2023-02-04T04:18:59;7.73;;;7.33;;
8102;SDS011;4094;49.948;11.574;2023-02-04T04:21:31;7.33;;;7.03;;
8102;SDS011;4094;49.948;11.574;2023-02-04T04:24:00;7.53;;;7.23;;
8102;SDS011;4094;49.948;11.574;2023-02-04T04:26:29;7.73;;;7.43;;
8102;SDS011;4094;49.948;11.574;2023-02-04T04:28:58;7.80;;;7.40;;
8102;SDS011;4094;49.948;11.574;2023-02-04T04:31:27;7.93;;;7.53;;
8102;SDS011;4094;49.948;11.574;2023-02-04T04:34:02;7.70;;;7.40;;
8102;SDS011;4094;49.948;11.574;2023-02-04T04:36:34;7.80;;;7.50;;
8102;SDS011;4094;49.948;11.574;2023-02-04T04:39:06;7.67;;;7.37;;
8102;SDS011;4094;49.948;11.574;2023-02-04T04:41:35;7.90;;;7.50;;
8102;SDS011;4094;49.948;11.574;2023-02-04T04:44:04;7.90;;;7.60;;
8102;SDS011;4094;49.948;11.574;2023-02-04T04:46:33;7.90;;;7.50;;
8102;SDS011;4094;49.948;11.574;2023-02-04T04:49:09;7.60;;;7.30;;
8102;SDS011;4094;49.948;11.574;2023-02-04T04:51:39;7.53;;;7.23;;
8102;SDS011;4094;49.948;11.574;2023-02-04T04:54:08;7.80;;;7.50;;
8102;SDS011;4094;49.948;11.574;2023-02-04T04:56:40;7.80;;;7.50;;
8102;SDS011;4094;49.948;11.574;2023-02-04T04:59:09;7.90;;;7.50;;
8102;SDS011;4094;49.948;11.574;2023-02-04T05:01:38;7.53;;;7.23;;
8102;SDS011;4094;49.948;11.574;2023-02-04T05:04:07;7.30;;;7.00;;
8102;SDS011;4094;49.948;11.574;2023-02-04T05:06:37;7.70;;;7.40;;
8102;SDS011;4094;49.948;11.574;2023-02-04T05:09:07;7.83;;;7.43;;
8102;SDS011;4094;49.948;11.574;2023-02-04T05:11:36;7.80;;;7.50;;
8102;SDS011;4094;49.948;11.574;2023-02-04T05:14:10;7.60;;;7.20;;
8102;SDS011;4094;49.948;11.574;2023-02-04T05:16:39;7.70;;;7.40;;
8102;SDS011;4094;49.948;11.574;2023-02-04T05:19:14;7.60;;;7.30;;
8102;SDS011;4094;49.948;11.574;2023-02-04T05:21:44;7.93;;;7.53;;
8102;SDS011;4094;49.948;11.574;2023-02-04T05:24:13;7.73;;;7.33;;
8102;SDS011;4094;49.948;11.574;2023-02-04T05:26:43;7.80;;;7.50;;
8102;SDS011;4094;49.948;11.574;2023-02-04T05:29:12;7.17;;;6.80;;
8102;SDS011;4094;49.948;11.574;2023-02-04T05:31:41;8.40;;;8.00;;
8102;SDS011;4094;49.948;11.574;2023-02-04T05:34:10;7.93;;;7.50;;
8102;SDS011;4094;49.948;11.574;2023-02-04T05:36:39;7.80;;;7.40;;
8102;SDS011;4094;49.948;11.574;2023-02-04T05:39:10;7.97;;;7.60;;
8102;SDS011;4094;49.948;11.574;2023-02-04T05:41:39;7.80;;;7.50;;
8102;SDS011;4094;49.948;11.574;2023-02-04T05:44:09;7.80;;;7.40;;
8102;SDS011;4094;49.948;11.574;2023-02-04T05:46:38;8.00;;;7.70;;
8102;SDS011;4094;49.948;11.574;2023-02-04T05:49:07;8.00;;;7.50;;
8102;SDS011;4094;49.948;11.574;2023-02-04T05:51:36;8.20;;;7.80;;
8102;SDS011;4094;49.948;11.574;2023-02-04T05:54:06;8.07;;;7.67;;
8102;SDS011;4094;49.948;11.574;2023-02-04T05:56:36;8.20;;;7.80;;
8102;SDS011;4094;49.948;11.574;2023-02-04T05:59:05;7.63;;;7.33;;
8102;SDS011;4094;49.948;11.574;2023-02-04T06:01:34;8.60;;;8.20;;
8102;SDS011;4094;49.948;11.574;2023-02-04T06:04:03;8.50;;;8.10;;
8102;SDS011;4094;49.948;11.574;2023-02-04T06:06:32;8.00;;;7.60;;
8102;SDS011;4094;49.948;11.574;2023-02-04T06:09:02;8.50;;;8.10;;
8102;SDS011;4094;49.948;11.574;2023-02-04T06:11:31;8.57;;;8.10;;
8102;SDS011;4094;49.948;11.574;2023-02-04T06:14:02;8.90;;;8.40;;
8102;SDS011;4094;49.948;11.574;2023-02-04T06:16:31;7.83;;;7.43;;
8102;SDS011;4094;49.948;11.574;2023-02-04T06:19:01;8.93;;;8.50;;
8102;SDS011;4094;49.948;11.574;2023-02-04T06:21:30;8.93;;;8.43;;
8102;SDS011;4094;49.948;11.574;2023-02-04T06:23:59;9.30;;;8.70;;
8102;SDS011;4094;49.948;11.574;2023-02-04T06:26:29;8.63;;;8.03;;
8102;SDS011;4094;49.948;11.574;2023-02-04T06:28:59;8.53;;;8.13;;
8102;SDS011;4094;49.948;11.574;2023-02-04T06:31:29;8.87;;;8.37;;
8102;SDS011;4094;49.948;11.574;2023-02-04T06:33:59;8.43;;;8.00;;
8102;SDS011;4094;49.948;11.574;2023-02-04T06:36:28;8.23;;;7.83;;
8102;SDS011;4094;49.948;11.574;2023-02-04T06:38:57;8.50;;;8.10;;
8102;SDS011;4094;49.948;11.574;2023-02-04T06:41:26;8.43;;;8.03;;
8102;SDS011;4094;49.948;11.574;2023-02-04T06:43:55;8.40;;;8.00;;
8102;SDS011;4094;49.948;11.574;2023-02-04T06:46:24;8.40;;;8.00;;
8102;SDS011;4094;49.948;11.574;2023-02-04T06:48:54;8.60;;;8.20;;
8102;SDS011;4094;49.948;11.574;2023-02-04T06:51:24;9.10;;;8.60;;
8102;SDS011;4094;49.948;11.574;2023-02-04T06:53:54;8.93;;;8.43;;
8102;SDS011;4094;49.948;11.574;2023-02-04T06:56:23;8.50;;;8.10;;
8102;SDS011;4094;49.948;11.574;2023-02-04T06:58:53;8.87;;;8.37;;
8102;SDS011;4094;49.948;11.574;2023-02-04T07:01:22;9.17;;;8.70;;
8102;SDS011;4094;49.948;11.574;2023-02-04T07:03:51;8.67;;;8.27;;
8102;SDS011;4094;49.948;11.574;2023-02-04T07:06:22;8.90;;;8.40;;
8102;SDS011;4094;49.948;11.574;2023-02-04T07:08:51;8.13;;;7.73;;
8102;SDS011;4094;49.948;11.574;2023-02-04T07:11:20;9.77;;;9.17;;
8102;SDS011;4094;49.948;11.574;2023-02-04T07:13:50;8.27;;;7.77;;
8102;SDS011;4094;49.948;11.574;2023-02-04T07:16:19;8.50;;;8.00;;
8102;SDS011;4094;49.948;11.574;2023-02-04T07:18:48;8.70;;;8.00;;
8102;SDS011;4094;49.948;11.574;2023-02-04T07:21:18;7.83;;;7.33;;
8102;SDS011;4094;49.948;11.574;2023-02-04T07:23:48;8.40;;;8.00;;
8102;SDS011;4094;49.948;11.574;2023-02-04T07:26:17;8.27;;;7.87;;
8102;SDS011;4094;49.948;11.574;2023-02-04T07:28:47;8.33;;;7.93;;
8102;SDS011;4094;49.948;11.574;2023-02-04T07:31:16;8.53;;;8.03;;
8102;SDS011;4094;49.948;11.574;2023-02-04T07:33:45;8.60;;;8.10;;
8102;SDS011;4094;49.948;11.574;2023-02-04T07:36:14;8.80;;;8.30;;
8102;SDS011;4094;49.948;11.574;2023-02-04T07:38:43;8.77;;;8.33;;
8102;SDS011;4094;49.948;11.574;2023-02-04T07:41:13;9.50;;;8.87;;
8102;SDS011;4094;49.948;11.574;2023-02-04T07:43:42;8.77;;;8.30;;
8102;SDS011;4094;49.948;11.574;2023-02-04T07:46:11;8.73;;;8.23;;
8102;SDS011;4094;49.948;11.574;2023-02-04T07:48:41;8.87;;;8.37;;
8102;SDS011;4094;49.948;11.574;2023-02-04T07:51:10;8.50;;;8.00;;
8102;SDS011;4094;49.948;11.574;2023-02-04T07:53:39;8.60;;;8.10;;
8102;SDS011;4094;49.948;11.574;2023-02-04T07:56:09;9.03;;;8.50;;
8102;SDS011;4094;49.948;11.574;2023-02-04T07:58:40;9.13;;;8.43;;
8102;SDS011;4094;49.948;11.574;2023-02-04T08:01:10;9.83;;;9.10;;
8102;SDS011;4094;49.948;11.574;2023-02-04T08:03:39;9.97;;;9.27;;
8102;SDS011;4094;49.948;11.574;2023-02-04T08:06:09;11.90;;;10.73;;
8102;SDS011;4094;49.948;11.574;2023-02-04T08:08:38;10.80;;;9.97;;
8102;SDS011;4094;49.948;11.574;2023-02-04T08:11:07;10.97;;;10.07;;
8102;SDS011;4094;49.948;11.574;2023-02-04T08:13:36;10.90;;;9.90;;
8102;SDS011;4094;49.948;11.574;2023-02-04T08:16:07;10.87;;;10.07;;
8102;SDS011;4094;49.948;11.574;2023-02-04T08:18:38;9.87;;;9.13;;
8102;SDS011;4094;49.948;11.574;2023-02-04T08:21:07;10.00;;;9.30;;
8102;SDS011;4094;49.948;11.574;2023-02-04T08:23:36;9.93;;;9.23;;
8102;SDS011;4094;49.948;11.574;2023-02-04T08:26:08;9.87;;;9.27;;
8102;SDS011;4094;49.948;11.574;2023-02-04T08:28:37;9.97;;;9.27;;
8102;SDS011;4094;49.948;11.574;2023-02-04T08:31:08;9.00;;;8.40;;
8102;SDS011;4094;49.948;11.574;2023-02-04T08:33:38;9.10;;;8.60;;
8102;SDS011;4094;49.948;11.574;2023-02-04T08:36:08;9.03;;;8.53;;
8102;SDS011;4094;49.948;11.574;2023-02-04T08:38:37;8.70;;;8.30;;
8102;SDS011;4094;49.948;11.574;2023-02-04T08:41:07;8.70;;;8.20;;
8102;SDS011;4094;49.948;11.574;2023-02-04T08:43:36;8.60;;;8.10;;
8102;SDS011;4094;49.948;11.574;2023-02-04T08:46:05;8.70;;;8.20;;
8102;SDS011;4094;49.948;11.574;2023-02-04T08:48:35;9.00;;;8.50;;
8102;SDS011;4094;49.948;11.574;2023-02-04T08:51:04;8.97;;;8.47;;
8102;SDS011;4094;49.948;11.574;2023-02-04T08:53:34;7.93;;;7.53;;
8102;SDS011;4094;49.948;11.574;2023-02-04T08:56:04;8.00;;;7.60;;
8102;SDS011;4094;49.948;11.574;2023-02-04T08:58:34;8.40;;;8.00;;
8102;SDS011;4094;49.948;11.574;2023-02-04T09:01:06;8.23;;;7.83;;
8102;SDS011;4094;49.948;11.574;2023-02-04T09:03:39;8.37;;;7.87;;
8102;SDS011;4094;49.948;11.574;2023-02-04T09:06:08;8.47;;;8.07;;
8102;SDS011;4094;49.948;11.574;2023-02-04T09:08:37;8.03;;;7.63;;
8102;SDS011;4094;49.948;11.574;2023-02-04T09:11:06;8.13;;;7.73;;
8102;SDS011;4094;49.948;11.574;2023-02-04T09:13:37;8.47;;;8.07;;
8102;SDS011;4094;49.948;11.574;2023-02-04T09:16:07;7.77;;;7.37;;
8102;SDS011;4094;49.948;11.574;2023-02-04T09:18:38;9.60;;;9.07;;
8102;SDS011;4094;49.948;11.574;2023-02-04T09:21:07;9.17;;;8.67;;
8102;SDS011;4094;49.948;11.574;2023-02-04T09:23:37;9.07;;;8.60;;
8102;SDS011;4094;49.948;11.574;2023-02-04T09:26:06;9.00;;;8.50;;
8102;SDS011;4094;49.948;11.574;2023-02-04T09:28:35;8.40;;;8.00;;
8102;SDS011;4094;49.948;11.574;2023-02-04T09:31:04;8.37;;;7.97;;
8102;SDS011;4094;49.948;11.574;2023-02-04T09:33:33;8.10;;;7.70;;
8102;SDS011;4094;49.948;11.574;2023-02-04T09:36:04;7.73;;;7.37;;
8102;SDS011;4094;49.948;11.574;2023-02-04T09:38:36;8.97;;;8.47;;
8102;SDS011;4094;49.948;11.574;2023-02-04T09:41:06;8.70;;;8.20;;
8102;SDS011;4094;49.948;11.574;2023-02-04T09:43:38;8.83;;;8.40;;
8102;SDS011;4094;49.948;11.574;2023-02-04T09:46:09;7.90;;;7.50;;
8102;SDS011;4094;49.948;11.574;2023-02-04T09:48:46;8.00;;;7.60;;
8102;SDS011;4094;49.948;11.574;2023-02-04T09:51:18;7.90;;;7.60;;
8102;SDS011;4094;49.948;11.574;2023-02-04T09:53:49;7.90;;;7.50;;
8102;SDS011;4094;49.948;11.574;2023-02-04T09:56:20;7.90;;;7.50;;
8102;SDS011;4094;49.948;11.574;2023-02-04T09:58:49;7.60;;;7.20;;
8102;SDS011;4094;49.948;11.574;2023-02-04T10:01:19;8.50;;;8.10;;
8102;SDS011;4094;49.948;11.574;2023-02-04T10:03:48;8.83;;;8.43;;
8102;SDS011;4094;49.948;11.574;2023-02-04T10:06:20;8.50;;;8.10;;
8102;SDS011;4094;49.948;11.574;2023-02-04T10:08:50;8.00;;;7.60;;
8102;SDS011;4094;49.948;11.574;2023-02-04T10:11:20;8.20;;;7.80;;
8102;SDS011;4094;49.948;11.574;2023-02-04T10:13:51;8.30;;;7.80;;
8102;SDS011;4094;49.948;11.574;2023-02-04T10:16:23;8.07;;;7.67;;
8102;SDS011;4094;49.948;11.574;2023-02-04T10:18:56;8.83;;;8.43;;
8102;SDS011;4094;49.948;11.574;2023-02-04T10:21:29;8.40;;;8.00;;
8102;SDS011;4094;49.948;11.574;2023-02-04T10:24:00;8.23;;;7.73;;
8102;SDS011;4094;49.948;11.574;2023-02-04T10:26:31;8.20;;;7.80;;
8102;SDS011;4094;49.948;11.574;2023-02-04T10:29:02;7.83;;;7.43;;
8102;SDS011;4094;49.948;11.574;2023-02-04T10:31:35;8.13;;;7.53;;
8102;SDS011;4094;49.948;11.574;2023-02-04T10:34:10;7.63;;;7.23;;
8102;SDS011;4094;49.948;11.574;2023-02-04T10:36:46;8.13;;;7.53;;
8102;SDS011;4094;49.948;11.574;2023-02-04T10:39:17;7.13;;;6.77;;
8102;SDS011;4094;49.948;11.574;2023-02-04T10:41:48;7.60;;;6.67;;
8102;SDS011;4094;49.948;11.574;2023-02-04T10:44:19;6.20;;;5.90;;
8102;SDS011;4094;49.948;11.574;2023-02-04T10:46:59;6.27;;;5.90;;
8102;SDS011;4094;49.948;11.574;2023-02-04T10:49:29;6.33;;;6.03;;
8102;SDS011;4094;49.948;11.574;2023-02-04T10:52:01;5.43;;;5.17;;
8102;SDS011;4094;49.948;11.574;2023-02-04T10:54:40;5.40;;;5.10;;
8102;SDS011;4094;49.948;11.574;2023-02-04T10:57:13;5.50;;;5.20;;
8102;SDS011;4094;49.948;11.574;2023-02-04T10:59:48;6.00;;;5.60;;
8102;SDS011;4094;49.948;11.574;2023-02-04T11:02:30;5.30;;;5.10;;
8102;SDS011;4094;49.948;11.574;2023-02-04T11:05:10;5.23;;;4.93;;
8102;SDS011;4094;49.948;11.574;2023-02-04T11:07:42;4.90;;;4.70;;
8102;SDS011;4094;49.948;11.574;2023-02-04T11:10:13;5.47;;;5.07;;
8102;SDS011;4094;49.948;11.574;2023-02-04T11:12:45;4.43;;;4.23;;
8102;SDS011;4094;49.948;11.574;2023-02-04T11:15:36;3.97;;;3.73;;
8102;SDS011;4094;49.948;11.574;2023-02-04T11:18:11;3.43;;;3.33;;
8102;SDS011;4094;49.948;11.574;2023-02-04T11:20:53;3.30;;;3.10;;
8102;SDS011;4094;49.948;11.574;2023-02-04T11:23:33;3.70;;;3.40;;
8102;SDS011;4094;49.948;11.574;2023-02-04T11:26:07;2.73;;;2.53;;
8102;SDS011;4094;49.948;11.574;2023-02-04T11:28:44;2.87;;;2.67;;
8102;SDS011;4094;49.948;11.574;2023-02-04T11:31:27;3.83;;;2.30;;
8102;SDS011;4094;49.948;11.574;2023-02-04T11:34:10;1.90;;;1.70;;
8102;SDS011;4094;49.948;11.574;2023-02-04T11:36:56;1.80;;;1.70;;
8102;SDS011;4094;49.948;11.574;2023-02-04T11:39:42;2.03;;;1.93;;
8102;SDS011;4094;49.948;11.574;2023-02-04T11:42:17;1.70;;;1.60;;
8102;SDS011;4094;49.948;11.574;2023-02-04T11:44:49;2.53;;;1.60;;
8102;SDS011;4094;49.948;11.574;2023-02-04T11:47:20;1.60;;;1.50;;
8102;SDS011;4094;49.948;11.574;2023-02-04T11:49:53;2.47;;;1.70;;
8102;SDS011;4094;49.948;11.574;2023-02-04T11:52:24;1.97;;;1.83;;
8102;SDS011;4094;49.948;11.574;2023-02-04T11:54:55;2.13;;;2.03;;
8102;SDS011;4094;49.948;11.574;2023-02-04T11:57:26;2.23;;;2.13;;
8102;SDS011;4094;49.948;11.574;2023-02-04T11:59:56;2.10;;;2.00;;
8102;SDS011;4094;49.948;11.574;2023-02-04T12:02:27;2.37;;;2.27;;
8102;SDS011;4094;49.948;11.574;2023-02-04T12:05:10;2.90;;;2.70;;
8102;SDS011;4094;49.948;11.574;2023-02-04T12:07:41;3.10;;;2.90;;
8102;SDS011;4094;49.948;11.574;2023-02-04T12:10:23;3.60;;;3.40;;
8102;SDS011;4094;49.948;11.574;2023-02-04T12:12:54;4.40;;;4.10;;
8102;SDS011;4094;49.948;11.574;2023-02-04T12:15:29;4.20;;;4.00;;
8102;SDS011;4094;49.948;11.574;2023-02-04T12:18:03;4.40;;;4.10;;
8102;SDS011;4094;49.948;11.574;2023-02-04T12:20:33;4.70;;;4.50;;
8102;SDS011;4094;49.948;11.574;2023-02-04T12:23:03;5.10;;;4.80;;
8102;SDS011;4094;49.948;11.574;2023-02-04T12:25:36;4.87;;;4.67;;
8102;SDS011;4094;49.948;11.574;2023-02-04T12:28:05;4.80;;;4.60;;
8102;SDS011;4094;49.948;11.574;2023-02-04T12:30:34;6.03;;;5.40;;
8102;SDS011;4094;49.948;11.574;2023-02-04T12:33:04;5.87;;;5.57;;
8102;SDS011;4094;49.948;11.574;2023-02-04T12:35:33;6.30;;;5.70;;
8102;SDS011;4094;49.948;11.574;2023-02-04T12:38:02;5.90;;;5.60;;
8102;SDS011;4094;49.948;11.574;2023-02-04T12:40:32;6.20;;;5.90;;
8102;SDS011;4094;49.948;11.574;2023-02-04T12:43:02;5.63;;;5.33;;
8102;SDS011;4094;49.948;11.574;2023-02-04T12:45:32;6.50;;;6.10;;
8102;SDS011;4094;49.948;11.574;2023-02-04T12:48:02;6.00;;;5.70;;
8102;SDS011;4094;49.948;11.574;2023-02-04T12:50:31;6.40;;;6.07;;
8102;SDS011;4094;49.948;11.574;2023-02-04T12:53:01;6.23;;;5.93;;
8102;SDS011;4094;49.948;11.574;2023-02-04T12:55:30;6.00;;;5.70;;
8102;SDS011;4094;49.948;11.574;2023-02-04T12:58:01;5.83;;;5.53;;
8102;SDS011;4094;49.948;11.574;2023-02-04T13:00:31;5.70;;;5.40;;
8102;SDS011;4094;49.948;11.574;2023-02-04T13:03:01;5.30;;;5.00;;
8102;SDS011;4094;49.948;11.574;2023-02-04T13:05:31;5.57;;;5.30;;
8102;SDS011;4094;49.948;11.574;2023-02-04T13:08:02;5.87;;;5.57;;
8102;SDS011;4094;49.948;11.574;2023-02-04T13:10:31;5.87;;;5.47;;
8102;SDS011;4094;49.948;11.574;2023-02-04T13:13:00;6.70;;;6.30;;
8102;SDS011;4094;49.948;11.574;2023-02-04T13:15:31;6.43;;;6.00;;
8102;SDS011;4094;49.948;11.574;2023-02-04T13:18:01;6.57;;;6.07;;
8102;SDS011;4094;49.948;11.574;2023-02-04T13:20:30;6.50;;;6.20;;
8102;SDS011;4094;49.948;11.574;2023-02-04T13:22:59;7.80;;;7.30;;
8102;SDS011;4094;49.948;11.574;2023-02-04T13:25:28;6.67;;;6.27;;
8102;SDS011;4094;49.948;11.574;2023-02-04T13:27:58;6.57;;;6.27;;
8102;SDS011;4094;49.948;11.574;2023-02-04T13:30:28;6.33;;;6.03;;
8102;SDS011;4094;49.948;11.574;2023-02-04T13:32:58;7.40;;;6.90;;
8102;SDS011;4094;49.948;11.574;2023-02-04T13:35:27;6.60;;;6.30;;
8102;SDS011;4094;49.948;11.574;2023-02-04T13:37:58;6.87;;;6.37;;
8102;SDS011;4094;49.948;11.574;2023-02-04T13:40:27;6.63;;;6.33;;
8102;SDS011;4094;49.948;11.574;2023-02-04T13:42:56;6.63;;;6.33;;
8102;SDS011;4094;49.948;11.574;2023-02-04T13:45:25;6.53;;;6.23;;
8102;SDS011;4094;49.948;11.574;2023-02-04T13:47:56;7.17;;;6.87;;
8102;SDS011;4094;49.948;11.574;2023-02-04T13:50:25;7.47;;;7.07;;
8102;SDS011;4094;49.948;11.574;2023-02-04T13:52:54;6.77;;;6.47;;
8102;SDS011;4094;49.948;11.574;2023-02-04T13:55:23;6.70;;;6.40;;
8102;SDS011;4094;49.948;11.574;2023-02-04T13:57:52;6.80;;;6.50;;
8102;SDS011;4094;49.948;11.574;2023-02-04T14:00:22;7.23;;;6.93;;
8102;SDS011;4094;49.948;11.574;2023-02-04T14:02:51;6.57;;;6.27;;
8102;SDS011;4094;49.948;11.574;2023-02-04T14:05:22;7.00;;;6.70;;
8102;SDS011;4094;49.948;11.574;2023-02-04T14:07:51;6.87;;;6.57;;
8102;SDS011;4094;49.948;11.574;2023-02-04T14:10:20;7.17;;;6.77;;
8102;SDS011;4094;49.948;11.574;2023-02-04T14:12:51;7.23;;;6.90;;
8102;SDS011;4094;49.948;11.574;2023-02-04T14:15:21;6.83;;;6.53;;
8102;SDS011;4094;49.948;11.574;2023-02-04T14:17:50;7.40;;;7.00;;
8102;SDS011;4094;49.948;11.574;2023-02-04T14:20:19;7.50;;;6.87;;
8102;SDS011;4094;49.948;11.574;2023-02-04T14:22:49;7.60;;;7.20;;
8102;SDS011;4094;49.948;11.574;2023-02-04T14:25:18;7.20;;;6.80;;
8102;SDS011;4094;49.948;11.574;2023-02-04T14:27:48;9.13;;;8.47;;
8102;SDS011;4094;49.948;11.574;2023-02-04T14:30:18;9.07;;;8.47;;
8102;SDS011;4094;49.948;11.574;2023-02-04T14:32:49;9.43;;;8.53;;
8102;SDS011;4094;49.948;11.574;2023-02-04T14:35:19;8.87;;;8.30;;
8102;SDS011;4094;49.948;11.574;2023-02-04T14:37:50;8.20;;;7.70;;
8102;SDS011;4094;49.948;11.574;2023-02-04T14:40:20;7.17;;;6.77;;
8102;SDS011;4094;49.948;11.574;2023-02-04T14:42:49;7.60;;;7.20;;
8102;SDS011;4094;49.948;11.574;2023-02-04T14:45:18;7.40;;;7.07;;
8102;SDS011;4094;49.948;11.574;2023-02-04T14:47:48;7.60;;;7.20;;
8102;SDS011;4094;49.948;11.574;2023-02-04T14:50:19;7.53;;;7.10;;
8102;SDS011;4094;49.948;11.574;2023-02-04T14:52:55;7.60;;;7.30;;
8102;SDS011;4094;49.948;11.574;2023-02-04T14:55:25;7.37;;;6.97;;
8102;SDS011;4094;49.948;11.574;2023-02-04T14:57:54;7.20;;;6.90;;
8102;SDS011;4094;49.948;11.574;2023-02-04T15:00:23;7.30;;;6.90;;
8102;SDS011;4094;49.948;11.574;2023-02-04T15:02:53;7.67;;;7.03;;
8102;SDS011;4094;49.948;11.574;2023-02-04T15:05:22;7.57;;;7.17;;
8102;SDS011;4094;49.948;11.574;2023-02-04T15:07:51;7.80;;;7.40;;
8102;SDS011;4094;49.948;11.574;2023-02-04T15:10:21;7.77;;;7.30;;
8102;SDS011;4094;49.948;11.574;2023-02-04T15:12:51;8.87;;;8.03;;
8102;SDS011;4094;49.948;11.574;2023-02-04T15:15:21;8.13;;;7.67;;
8102;SDS011;4094;49.948;11.574;2023-02-04T15:17:51;9.10;;;8.50;;
8102;SDS011;4094;49.948;11.574;2023-02-04T15:20:20;7.57;;;7.17;;